sensor_id;sensor_type;location;lat;lon;timestamp;temperature;humidity
6758;DHT22;3416;53.074;8.822;2022-09-01T00:00:14;15.60;99.90
6758;DHT22;3416;53.074;8.822;2022-09-01T00:02:44;15.60;99.90
6758;DHT22;3416;53.074;8.822;2022-09-01T00:05:12;15.50;99.90
6758;DHT22;3416;53.074;8.822;2022-09-01T00:07:39;15.50;99.90
6758;DHT22;3416;53.074;8.822;2022-09-01T00:10:08;15.50;99.90
6758;DHT22;3416;53.074;8.822;2022-09-01T00:12:35;15.50;99.90
6758;DHT22;3416;53.074;8.822;2022-09-01T00:15:03;15.50;99.90
6758;DHT22;3416;53.074;8.822;2022-09-01T00:17:30;15.40;99.90
6758;DHT22;3416;53.074;8.822;2022-09-01T00:19:59;15.40;99.90
6758;DHT22;3416;53.074;8.822;2022-09-01T00:22:26;15.40;99.90
6758;DHT22;3416;53.074;8.822;2022-09-01T00:24:54;15.40;99.90
6758;DHT22;3416;53.074;8.822;2022-09-01T00:27:21;15.30;99.90
6758;DHT22;3416;53.074;8.822;2022-09-01T00:29:48;15.30;99.90
6758;DHT22;3416;53.074;8.822;2022-09-01T00:32:15;15.40;99.90
6758;DHT22;3416;53.074;8.822;2022-09-01T00:34:42;15.40;99.90
6758;DHT22;3416;53.074;8.822;2022-09-01T00:37:10;15.40;99.90
6758;DHT22;3416;53.074;8.822;2022-09-01T00:39:37;15.30;99.90
6758;DHT22;3416;53.074;8.822;2022-09-01T00:42:04;15.40;99.90
6758;DHT22;3416;53.074;8.822;2022-09-01T00:44:31;15.40;99.90
6758;DHT22;3416;53.074;8.822;2022-09-01T00:46:58;15.40;99.90
6758;DHT22;3416;53.074;8.822;2022-09-01T00:49:28;15.50;99.90
6758;DHT22;3416;53.074;8.822;2022-09-01T00:52:00;15.50;99.90
6758;DHT22;3416;53.074;8.822;2022-09-01T00:54:34;15.50;99.90
6758;DHT22;3416;53.074;8.822;2022-09-01T00:57:02;15.50;99.90
6758;DHT22;3416;53.074;8.822;2022-09-01T00:59:31;15.50;99.90
6758;DHT22;3416;53.074;8.822;2022-09-01T01:01:58;15.50;99.90
6758;DHT22;3416;53.074;8.822;2022-09-01T01:04:25;15.50;99.90
6758;DHT22;3416;53.074;8.822;2022-09-01T01:06:55;15.50;99.90
6758;DHT22;3416;53.074;8.822;2022-09-01T01:09:30;15.50;99.90
6758;DHT22;3416;53.074;8.822;2022-09-01T01:12:00;15.50;99.90
6758;DHT22;3416;53.074;8.822;2022-09-01T01:14:28;15.50;99.90
6758;DHT22;3416;53.074;8.822;2022-09-01T01:16:57;15.50;99.90
6758;DHT22;3416;53.074;8.822;2022-09-01T01:19:33;15.50;99.90
6758;DHT22;3416;53.074;8.822;2022-09-01T01:22:27;15.50;99.90
6758;DHT22;3416;53.074;8.822;2022-09-01T01:25:14;15.50;99.90
6758;DHT22;3416;53.074;8.822;2022-09-01T01:27:44;15.50;99.90
6758;DHT22;3416;53.074;8.822;2022-09-01T01:30:12;15.40;99.90
6758;DHT22;3416;53.074;8.822;2022-09-01T01:32:39;15.50;99.90
6758;DHT22;3416;53.074;8.822;2022-09-01T01:35:14;15.40;99.90
6758;DHT22;3416;53.074;8.822;2022-09-01T01:37:42;15.40;99.90
6758;DHT22;3416;53.074;8.822;2022-09-01T01:40:17;15.30;99.90
6758;DHT22;3416;53.074;8.822;2022-09-01T01:42:48;15.30;99.90
6758;DHT22;3416;53.074;8.822;2022-09-01T01:45:21;15.30;99.90
6758;DHT22;3416;53.074;8.822;2022-09-01T01:47:51;15.20;99.90
6758;DHT22;3416;53.074;8.822;2022-09-01T01:50:19;15.20;99.90
6758;DHT22;3416;53.074;8.822;2022-09-01T01:52:46;15.10;99.90
6758;DHT22;3416;53.074;8.822;2022-09-01T01:55:14;15.10;99.90
6758;DHT22;3416;53.074;8.822;2022-09-01T01:57:44;15.20;99.90
6758;DHT22;3416;53.074;8.822;2022-09-01T02:00:16;15.20;99.90
6758;DHT22;3416;53.074;8.822;2022-09-01T02:02:44;15.10;99.90
6758;DHT22;3416;53.074;8.822;2022-09-01T02:05:20;15.10;99.90
6758;DHT22;3416;53.074;8.822;2022-09-01T02:07:53;15.10;99.90
6758;DHT22;3416;53.074;8.822;2022-09-01T02:10:25;15.10;99.90
6758;DHT22;3416;53.074;8.822;2022-09-01T02:12:52;15.00;99.90
6758;DHT22;3416;53.074;8.822;2022-09-01T02:15:19;15.00;99.90
6758;DHT22;3416;53.074;8.822;2022-09-01T02:17:46;15.00;99.90
6758;DHT22;3416;53.074;8.822;2022-09-01T02:20:13;15.00;99.90
6758;DHT22;3416;53.074;8.822;2022-09-01T02:22:42;15.00;99.90
6758;DHT22;3416;53.074;8.822;2022-09-01T02:25:11;15.00;99.90
6758;DHT22;3416;53.074;8.822;2022-09-01T02:27:43;14.90;99.90
6758;DHT22;3416;53.074;8.822;2022-09-01T02:30:13;14.90;99.90
6758;DHT22;3416;53.074;8.822;2022-09-01T02:32:41;14.90;99.90
6758;DHT22;3416;53.074;8.822;2022-09-01T02:35:08;14.90;99.90
6758;DHT22;3416;53.074;8.822;2022-09-01T02:37:38;14.90;99.90
6758;DHT22;3416;53.074;8.822;2022-09-01T02:40:08;14.90;99.90
6758;DHT22;3416;53.074;8.822;2022-09-01T02:42:36;14.90;99.90
6758;DHT22;3416;53.074;8.822;2022-09-01T02:45:08;14.90;99.90
6758;DHT22;3416;53.074;8.822;2022-09-01T02:47:36;14.80;99.90
6758;DHT22;3416;53.074;8.822;2022-09-01T02:50:07;14.80;99.90
6758;DHT22;3416;53.074;8.822;2022-09-01T02:52:38;14.80;99.90
6758;DHT22;3416;53.074;8.822;2022-09-01T02:55:07;14.80;99.90
6758;DHT22;3416;53.074;8.822;2022-09-01T02:57:34;14.80;99.90
6758;DHT22;3416;53.074;8.822;2022-09-01T03:00:07;14.80;99.90
6758;DHT22;3416;53.074;8.822;2022-09-01T03:02:48;14.70;99.90
6758;DHT22;3416;53.074;8.822;2022-09-01T03:05:18;14.70;99.90
6758;DHT22;3416;53.074;8.822;2022-09-01T03:07:52;14.70;99.90
6758;DHT22;3416;53.074;8.822;2022-09-01T03:10:22;14.60;99.90
6758;DHT22;3416;53.074;8.822;2022-09-01T03:12:53;14.50;99.90
6758;DHT22;3416;53.074;8.822;2022-09-01T03:15:21;14.60;99.90
6758;DHT22;3416;53.074;8.822;2022-09-01T03:17:50;14.50;99.90
6758;DHT22;3416;53.074;8.822;2022-09-01T03:20:17;14.50;99.90
6758;DHT22;3416;53.074;8.822;2022-09-01T03:22:47;14.40;99.90
6758;DHT22;3416;53.074;8.822;2022-09-01T03:25:16;14.40;99.90
6758;DHT22;3416;53.074;8.822;2022-09-01T03:27:43;14.40;99.90
6758;DHT22;3416;53.074;8.822;2022-09-01T03:30:12;14.50;99.90
6758;DHT22;3416;53.074;8.822;2022-09-01T03:32:40;14.50;99.90
6758;DHT22;3416;53.074;8.822;2022-09-01T03:35:08;14.50;99.90
6758;DHT22;3416;53.074;8.822;2022-09-01T03:37:36;14.50;99.90
6758;DHT22;3416;53.074;8.822;2022-09-01T03:40:05;14.50;99.90
6758;DHT22;3416;53.074;8.822;2022-09-01T03:42:33;14.50;99.90
6758;DHT22;3416;53.074;8.822;2022-09-01T03:45:00;14.50;99.90
6758;DHT22;3416;53.074;8.822;2022-09-01T03:47:34;14.50;99.90
6758;DHT22;3416;53.074;8.822;2022-09-01T03:50:08;14.40;99.90
6758;DHT22;3416;53.074;8.822;2022-09-01T03:52:38;14.40;99.90
6758;DHT22;3416;53.074;8.822;2022-09-01T03:55:06;14.40;99.90
6758;DHT22;3416;53.074;8.822;2022-09-01T03:57:34;14.40;99.90
6758;DHT22;3416;53.074;8.822;2022-09-01T04:00:08;14.30;99.90
6758;DHT22;3416;53.074;8.822;2022-09-01T04:02:45;14.30;99.90
6758;DHT22;3416;53.074;8.822;2022-09-01T04:05:17;14.30;99.90
6758;DHT22;3416;53.074;8.822;2022-09-01T04:07:47;14.20;99.90
6758;DHT22;3416;53.074;8.822;2022-09-01T04:10:15;14.20;99.90
6758;DHT22;3416;53.074;8.822;2022-09-01T04:12:43;14.10;99.90
6758;DHT22;3416;53.074;8.822;2022-09-01T04:15:11;14.10;99.90
6758;DHT22;3416;53.074;8.822;2022-09-01T04:17:38;14.10;99.90
6758;DHT22;3416;53.074;8.822;2022-09-01T04:20:24;14.10;99.90
6758;DHT22;3416;53.074;8.822;2022-09-01T04:22:51;14.00;99.90
6758;DHT22;3416;53.074;8.822;2022-09-01T04:25:19;14.00;99.90
6758;DHT22;3416;53.074;8.822;2022-09-01T04:27:48;14.00;99.90
6758;DHT22;3416;53.074;8.822;2022-09-01T04:30:16;14.00;99.90
6758;DHT22;3416;53.074;8.822;2022-09-01T04:32:43;14.00;99.90
6758;DHT22;3416;53.074;8.822;2022-09-01T04:35:11;13.90;99.90
6758;DHT22;3416;53.074;8.822;2022-09-01T04:37:42;13.90;99.90
6758;DHT22;3416;53.074;8.822;2022-09-01T04:40:12;13.90;99.90
6758;DHT22;3416;53.074;8.822;2022-09-01T04:42:39;13.90;99.90
6758;DHT22;3416;53.074;8.822;2022-09-01T04:45:08;13.90;99.90
6758;DHT22;3416;53.074;8.822;2022-09-01T04:47:37;13.90;99.90
6758;DHT22;3416;53.074;8.822;2022-09-01T04:50:09;13.90;99.90
6758;DHT22;3416;53.074;8.822;2022-09-01T04:52:40;14.00;99.90
6758;DHT22;3416;53.074;8.822;2022-09-01T04:55:10;14.10;99.90
6758;DHT22;3416;53.074;8.822;2022-09-01T04:57:42;14.20;99.90
6758;DHT22;3416;53.074;8.822;2022-09-01T05:00:14;14.30;99.90
6758;DHT22;3416;53.074;8.822;2022-09-01T05:02:47;14.30;99.90
6758;DHT22;3416;53.074;8.822;2022-09-01T05:05:15;14.30;99.90
6758;DHT22;3416;53.074;8.822;2022-09-01T05:07:42;14.40;99.90
6758;DHT22;3416;53.074;8.822;2022-09-01T05:10:11;14.50;99.90
6758;DHT22;3416;53.074;8.822;2022-09-01T05:12:38;14.80;99.90
6758;DHT22;3416;53.074;8.822;2022-09-01T05:15:06;15.00;99.90
6758;DHT22;3416;53.074;8.822;2022-09-01T05:17:35;15.00;99.90
6758;DHT22;3416;53.074;8.822;2022-09-01T05:20:04;15.00;99.90
6758;DHT22;3416;53.074;8.822;2022-09-01T05:22:33;15.10;99.90
6758;DHT22;3416;53.074;8.822;2022-09-01T05:25:01;15.00;99.90
6758;DHT22;3416;53.074;8.822;2022-09-01T05:27:38;15.10;99.90
6758;DHT22;3416;53.074;8.822;2022-09-01T05:30:07;15.20;99.90
6758;DHT22;3416;53.074;8.822;2022-09-01T05:32:35;15.30;99.90
6758;DHT22;3416;53.074;8.822;2022-09-01T05:35:07;15.40;99.90
6758;DHT22;3416;53.074;8.822;2022-09-01T05:37:35;15.80;99.90
6758;DHT22;3416;53.074;8.822;2022-09-01T05:40:09;16.50;99.90
6758;DHT22;3416;53.074;8.822;2022-09-01T05:42:42;17.60;99.90
6758;DHT22;3416;53.074;8.822;2022-09-01T05:45:11;18.60;99.90
6758;DHT22;3416;53.074;8.822;2022-09-01T05:47:39;19.50;99.90
6758;DHT22;3416;53.074;8.822;2022-09-01T05:50:07;20.30;99.90
6758;DHT22;3416;53.074;8.822;2022-09-01T05:52:37;21.00;98.60
6758;DHT22;3416;53.074;8.822;2022-09-01T05:55:06;21.80;96.70
6758;DHT22;3416;53.074;8.822;2022-09-01T05:57:34;22.40;94.80
6758;DHT22;3416;53.074;8.822;2022-09-01T06:00:07;23.10;92.90
6758;DHT22;3416;53.074;8.822;2022-09-01T06:02:39;23.60;91.50
6758;DHT22;3416;53.074;8.822;2022-09-01T06:05:07;23.80;90.90
6758;DHT22;3416;53.074;8.822;2022-09-01T06:07:40;24.00;90.50
6758;DHT22;3416;53.074;8.822;2022-09-01T06:10:07;24.70;89.40
6758;DHT22;3416;53.074;8.822;2022-09-01T06:12:35;25.20;87.00
6758;DHT22;3416;53.074;8.822;2022-09-01T06:15:02;25.70;85.00
6758;DHT22;3416;53.074;8.822;2022-09-01T06:17:33;25.90;83.50
6758;DHT22;3416;53.074;8.822;2022-09-01T06:20:00;26.00;82.60
6758;DHT22;3416;53.074;8.822;2022-09-01T06:22:35;26.20;81.90
6758;DHT22;3416;53.074;8.822;2022-09-01T06:25:03;26.60;80.70
6758;DHT22;3416;53.074;8.822;2022-09-01T06:27:33;26.70;80.00
6758;DHT22;3416;53.074;8.822;2022-09-01T06:30:04;27.00;79.30
6758;DHT22;3416;53.074;8.822;2022-09-01T06:32:43;27.60;77.60
6758;DHT22;3416;53.074;8.822;2022-09-01T06:35:10;27.60;77.20
6758;DHT22;3416;53.074;8.822;2022-09-01T06:37:38;27.10;77.60
6758;DHT22;3416;53.074;8.822;2022-09-01T06:40:09;27.30;77.50
6758;DHT22;3416;53.074;8.822;2022-09-01T06:42:42;27.90;76.60
6758;DHT22;3416;53.074;8.822;2022-09-01T06:45:11;28.30;75.00
6758;DHT22;3416;53.074;8.822;2022-09-01T06:47:39;28.80;74.10
6758;DHT22;3416;53.074;8.822;2022-09-01T06:50:12;29.10;72.80
6758;DHT22;3416;53.074;8.822;2022-09-01T06:52:40;29.50;72.30
6758;DHT22;3416;53.074;8.822;2022-09-01T06:55:12;29.30;71.00
6758;DHT22;3416;53.074;8.822;2022-09-01T06:57:41;29.20;71.40
6758;DHT22;3416;53.074;8.822;2022-09-01T07:00:17;29.30;70.80
6758;DHT22;3416;53.074;8.822;2022-09-01T07:02:53;29.60;70.00
6758;DHT22;3416;53.074;8.822;2022-09-01T07:05:24;29.30;70.10
6758;DHT22;3416;53.074;8.822;2022-09-01T07:07:52;29.30;69.80
6758;DHT22;3416;53.074;8.822;2022-09-01T07:10:20;29.90;69.10
6758;DHT22;3416;53.074;8.822;2022-09-01T07:12:48;30.10;68.30
6758;DHT22;3416;53.074;8.822;2022-09-01T07:15:16;30.20;67.50
6758;DHT22;3416;53.074;8.822;2022-09-01T07:17:46;30.70;66.60
6758;DHT22;3416;53.074;8.822;2022-09-01T07:20:14;31.00;65.20
6758;DHT22;3416;53.074;8.822;2022-09-01T07:22:42;31.40;64.60
6758;DHT22;3416;53.074;8.822;2022-09-01T07:25:09;31.40;63.50
6758;DHT22;3416;53.074;8.822;2022-09-01T07:27:37;31.40;62.70
6758;DHT22;3416;53.074;8.822;2022-09-01T07:30:06;31.30;62.50
6758;DHT22;3416;53.074;8.822;2022-09-01T07:32:34;31.90;62.10
6758;DHT22;3416;53.074;8.822;2022-09-01T07:35:01;31.70;60.40
6758;DHT22;3416;53.074;8.822;2022-09-01T07:37:29;31.40;61.80
6758;DHT22;3416;53.074;8.822;2022-09-01T07:39:57;31.50;60.90
6758;DHT22;3416;53.074;8.822;2022-09-01T07:42:24;31.70;60.50
6758;DHT22;3416;53.074;8.822;2022-09-01T07:44:52;31.80;59.80
6758;DHT22;3416;53.074;8.822;2022-09-01T07:47:19;31.70;58.90
6758;DHT22;3416;53.074;8.822;2022-09-01T07:49:45;32.00;58.50
6758;DHT22;3416;53.074;8.822;2022-09-01T07:52:12;32.50;57.50
6758;DHT22;3416;53.074;8.822;2022-09-01T07:54:39;32.00;57.00
6758;DHT22;3416;53.074;8.822;2022-09-01T07:57:08;32.50;56.30
6758;DHT22;3416;53.074;8.822;2022-09-01T07:59:35;32.60;55.40
6758;DHT22;3416;53.074;8.822;2022-09-01T08:02:04;32.60;55.10
6758;DHT22;3416;53.074;8.822;2022-09-01T08:04:31;32.80;54.80
6758;DHT22;3416;53.074;8.822;2022-09-01T08:06:58;32.40;55.30
6758;DHT22;3416;53.074;8.822;2022-09-01T08:09:26;32.40;54.50
6758;DHT22;3416;53.074;8.822;2022-09-01T08:11:53;32.30;53.70
6758;DHT22;3416;53.074;8.822;2022-09-01T08:14:21;32.40;53.30
6758;DHT22;3416;53.074;8.822;2022-09-01T08:16:49;33.00;52.40
6758;DHT22;3416;53.074;8.822;2022-09-01T08:19:16;33.00;52.00
6758;DHT22;3416;53.074;8.822;2022-09-01T08:21:44;33.80;51.80
6758;DHT22;3416;53.074;8.822;2022-09-01T08:24:12;34.00;51.00
6758;DHT22;3416;53.074;8.822;2022-09-01T08:26:39;34.00;49.90
6758;DHT22;3416;53.074;8.822;2022-09-01T08:29:06;34.10;49.90
6758;DHT22;3416;53.074;8.822;2022-09-01T08:31:34;34.20;49.50
6758;DHT22;3416;53.074;8.822;2022-09-01T08:34:01;34.10;49.50
6758;DHT22;3416;53.074;8.822;2022-09-01T08:36:30;33.60;49.40
6758;DHT22;3416;53.074;8.822;2022-09-01T08:38:57;33.70;48.70
6758;DHT22;3416;53.074;8.822;2022-09-01T08:41:34;33.70;48.50
6758;DHT22;3416;53.074;8.822;2022-09-01T08:44:12;33.70;48.70
6758;DHT22;3416;53.074;8.822;2022-09-01T08:46:43;33.90;48.20
6758;DHT22;3416;53.074;8.822;2022-09-01T08:49:14;33.80;48.50
6758;DHT22;3416;53.074;8.822;2022-09-01T08:51:47;34.40;48.30
6758;DHT22;3416;53.074;8.822;2022-09-01T08:54:20;34.20;47.70
6758;DHT22;3416;53.074;8.822;2022-09-01T08:56:51;34.10;47.80
6758;DHT22;3416;53.074;8.822;2022-09-01T08:59:19;34.30;47.50
6758;DHT22;3416;53.074;8.822;2022-09-01T09:01:55;34.30;47.10
6758;DHT22;3416;53.074;8.822;2022-09-01T09:04:38;34.30;46.30
6758;DHT22;3416;53.074;8.822;2022-09-01T09:07:19;33.70;47.00
6758;DHT22;3416;53.074;8.822;2022-09-01T09:09:50;34.00;46.50
6758;DHT22;3416;53.074;8.822;2022-09-01T09:12:34;34.30;46.20
6758;DHT22;3416;53.074;8.822;2022-09-01T09:15:14;34.50;45.10
6758;DHT22;3416;53.074;8.822;2022-09-01T09:17:49;34.60;44.60
6758;DHT22;3416;53.074;8.822;2022-09-01T09:20:24;34.60;44.60
6758;DHT22;3416;53.074;8.822;2022-09-01T09:22:51;34.30;45.10
6758;DHT22;3416;53.074;8.822;2022-09-01T09:25:19;34.00;44.30
6758;DHT22;3416;53.074;8.822;2022-09-01T09:27:47;33.60;44.90
6758;DHT22;3416;53.074;8.822;2022-09-01T09:30:19;33.50;45.50
6758;DHT22;3416;53.074;8.822;2022-09-01T09:32:50;33.60;43.90
6758;DHT22;3416;53.074;8.822;2022-09-01T09:35:27;33.70;43.90
6758;DHT22;3416;53.074;8.822;2022-09-01T09:38:14;33.40;43.90
6758;DHT22;3416;53.074;8.822;2022-09-01T09:40:56;33.20;44.20
6758;DHT22;3416;53.074;8.822;2022-09-01T09:43:24;32.80;44.20
6758;DHT22;3416;53.074;8.822;2022-09-01T09:46:20;31.60;45.40
6758;DHT22;3416;53.074;8.822;2022-09-01T09:49:06;31.00;46.30
6758;DHT22;3416;53.074;8.822;2022-09-01T09:51:34;30.60;47.00
6758;DHT22;3416;53.074;8.822;2022-09-01T09:54:15;30.40;47.40
6758;DHT22;3416;53.074;8.822;2022-09-01T09:56:43;30.50;47.50
6758;DHT22;3416;53.074;8.822;2022-09-01T09:59:18;30.60;47.90
6758;DHT22;3416;53.074;8.822;2022-09-01T10:01:49;30.30;47.40
6758;DHT22;3416;53.074;8.822;2022-09-01T10:04:34;30.60;48.30
6758;DHT22;3416;53.074;8.822;2022-09-01T10:07:26;30.70;48.40
6758;DHT22;3416;53.074;8.822;2022-09-01T10:09:55;31.20;47.50
6758;DHT22;3416;53.074;8.822;2022-09-01T10:12:23;31.60;46.90
6758;DHT22;3416;53.074;8.822;2022-09-01T10:14:54;31.60;46.80
6758;DHT22;3416;53.074;8.822;2022-09-01T10:17:27;31.80;47.00
6758;DHT22;3416;53.074;8.822;2022-09-01T10:19:59;31.80;45.90
6758;DHT22;3416;53.074;8.822;2022-09-01T10:22:31;32.10;46.10
6758;DHT22;3416;53.074;8.822;2022-09-01T10:24:59;31.60;45.90
6758;DHT22;3416;53.074;8.822;2022-09-01T10:27:29;31.50;46.10
6758;DHT22;3416;53.074;8.822;2022-09-01T10:30:05;30.50;46.70
6758;DHT22;3416;53.074;8.822;2022-09-01T10:32:37;30.10;47.70
6758;DHT22;3416;53.074;8.822;2022-09-01T10:35:09;29.70;48.20
6758;DHT22;3416;53.074;8.822;2022-09-01T10:37:38;29.30;49.30
6758;DHT22;3416;53.074;8.822;2022-09-01T10:40:20;28.90;49.90
6758;DHT22;3416;53.074;8.822;2022-09-01T10:43:24;28.40;50.60
6758;DHT22;3416;53.074;8.822;2022-09-01T10:45:53;27.80;51.40
6758;DHT22;3416;53.074;8.822;2022-09-01T10:48:29;27.50;52.00
6758;DHT22;3416;53.074;8.822;2022-09-01T10:54:03;26.70;53.10
6758;DHT22;3416;53.074;8.822;2022-09-01T10:56:37;26.80;53.80
6758;DHT22;3416;53.074;8.822;2022-09-01T10:59:07;26.70;53.60
6758;DHT22;3416;53.074;8.822;2022-09-01T11:02:03;26.50;53.60
6758;DHT22;3416;53.074;8.822;2022-09-01T11:07:39;26.20;53.80
6758;DHT22;3416;53.074;8.822;2022-09-01T11:13:14;26.30;55.20
6758;DHT22;3416;53.074;8.822;2022-09-01T11:15:44;26.40;54.50
6758;DHT22;3416;53.074;8.822;2022-09-01T11:18:15;26.20;54.40
6758;DHT22;3416;53.074;8.822;2022-09-01T11:20:45;26.20;54.70
6758;DHT22;3416;53.074;8.822;2022-09-01T11:23:21;25.90;55.00
6758;DHT22;3416;53.074;8.822;2022-09-01T11:25:51;25.50;55.70
6758;DHT22;3416;53.074;8.822;2022-09-01T11:28:38;25.10;56.20
6758;DHT22;3416;53.074;8.822;2022-09-01T11:31:25;25.20;56.10
6758;DHT22;3416;53.074;8.822;2022-09-01T11:34:16;25.30;56.00
6758;DHT22;3416;53.074;8.822;2022-09-01T11:36:58;25.50;55.80
6758;DHT22;3416;53.074;8.822;2022-09-01T11:39:38;25.80;55.70
6758;DHT22;3416;53.074;8.822;2022-09-01T11:42:11;25.60;55.40
6758;DHT22;3416;53.074;8.822;2022-09-01T11:44:48;25.50;56.00
6758;DHT22;3416;53.074;8.822;2022-09-01T11:47:19;25.30;55.90
6758;DHT22;3416;53.074;8.822;2022-09-01T11:49:50;24.90;56.50
6758;DHT22;3416;53.074;8.822;2022-09-01T11:52:19;24.70;56.80
6758;DHT22;3416;53.074;8.822;2022-09-01T11:54:47;24.60;57.20
6758;DHT22;3416;53.074;8.822;2022-09-01T11:57:25;24.30;57.40
6758;DHT22;3416;53.074;8.822;2022-09-01T11:59:53;24.20;57.40
6758;DHT22;3416;53.074;8.822;2022-09-01T12:02:24;24.50;58.00
6758;DHT22;3416;53.074;8.822;2022-09-01T12:04:52;24.40;57.20
6758;DHT22;3416;53.074;8.822;2022-09-01T12:07:38;24.30;57.70
6758;DHT22;3416;53.074;8.822;2022-09-01T12:10:16;24.40;58.00
6758;DHT22;3416;53.074;8.822;2022-09-01T12:12:46;24.40;58.10
6758;DHT22;3416;53.074;8.822;2022-09-01T12:15:21;24.20;58.00
6758;DHT22;3416;53.074;8.822;2022-09-01T12:18:12;24.30;58.10
6758;DHT22;3416;53.074;8.822;2022-09-01T12:20:41;24.40;57.30
6758;DHT22;3416;53.074;8.822;2022-09-01T12:23:23;24.40;57.00
6758;DHT22;3416;53.074;8.822;2022-09-01T12:25:51;24.60;56.90
6758;DHT22;3416;53.074;8.822;2022-09-01T12:28:21;24.70;56.60
6758;DHT22;3416;53.074;8.822;2022-09-01T12:30:49;24.80;57.00
6758;DHT22;3416;53.074;8.822;2022-09-01T12:33:19;24.90;56.90
6758;DHT22;3416;53.074;8.822;2022-09-01T12:35:47;25.00;57.80
6758;DHT22;3416;53.074;8.822;2022-09-01T12:38:27;25.00;57.00
6758;DHT22;3416;53.074;8.822;2022-09-01T12:40:56;25.20;56.20
6758;DHT22;3416;53.074;8.822;2022-09-01T12:43:31;25.10;56.10
6758;DHT22;3416;53.074;8.822;2022-09-01T12:45:58;25.20;56.40
6758;DHT22;3416;53.074;8.822;2022-09-01T12:48:28;25.30;56.00
6758;DHT22;3416;53.074;8.822;2022-09-01T12:50:57;25.60;55.40
6758;DHT22;3416;53.074;8.822;2022-09-01T12:53:30;25.60;55.10
6758;DHT22;3416;53.074;8.822;2022-09-01T12:59:06;25.00;55.80
6758;DHT22;3416;53.074;8.822;2022-09-01T13:01:35;24.80;55.60
6758;DHT22;3416;53.074;8.822;2022-09-01T13:04:10;24.60;55.80
6758;DHT22;3416;53.074;8.822;2022-09-01T13:06:38;24.50;55.90
6758;DHT22;3416;53.074;8.822;2022-09-01T13:09:05;24.80;55.30
6758;DHT22;3416;53.074;8.822;2022-09-01T13:11:32;25.00;55.10
6758;DHT22;3416;53.074;8.822;2022-09-01T13:13:59;25.50;55.10
6758;DHT22;3416;53.074;8.822;2022-09-01T13:16:28;25.80;55.00
6758;DHT22;3416;53.074;8.822;2022-09-01T13:18:56;25.70;54.50
6758;DHT22;3416;53.074;8.822;2022-09-01T13:21:23;25.50;55.00
6758;DHT22;3416;53.074;8.822;2022-09-01T13:23:52;25.30;55.20
6758;DHT22;3416;53.074;8.822;2022-09-01T13:26:18;25.30;55.90
6758;DHT22;3416;53.074;8.822;2022-09-01T13:28:49;25.10;56.60
6758;DHT22;3416;53.074;8.822;2022-09-01T13:31:25;25.00;57.10
6758;DHT22;3416;53.074;8.822;2022-09-01T13:33:54;24.80;57.90
6758;DHT22;3416;53.074;8.822;2022-09-01T13:36:22;24.80;58.50
6758;DHT22;3416;53.074;8.822;2022-09-01T13:38:49;24.70;58.60
6758;DHT22;3416;53.074;8.822;2022-09-01T13:41:17;24.80;58.40
6758;DHT22;3416;53.074;8.822;2022-09-01T13:43:44;24.90;58.50
6758;DHT22;3416;53.074;8.822;2022-09-01T13:46:11;24.80;58.00
6758;DHT22;3416;53.074;8.822;2022-09-01T13:48:38;24.60;58.10
6758;DHT22;3416;53.074;8.822;2022-09-01T13:51:07;24.70;58.30
6758;DHT22;3416;53.074;8.822;2022-09-01T13:53:34;24.80;58.30
6758;DHT22;3416;53.074;8.822;2022-09-01T13:56:02;24.80;57.70
6758;DHT22;3416;53.074;8.822;2022-09-01T13:58:29;24.80;57.90
6758;DHT22;3416;53.074;8.822;2022-09-01T14:00:56;24.60;57.80
6758;DHT22;3416;53.074;8.822;2022-09-01T14:03:24;24.40;57.50
6758;DHT22;3416;53.074;8.822;2022-09-01T14:05:51;24.20;57.80
6758;DHT22;3416;53.074;8.822;2022-09-01T14:08:21;24.10;58.00
6758;DHT22;3416;53.074;8.822;2022-09-01T14:10:49;24.00;58.50
6758;DHT22;3416;53.074;8.822;2022-09-01T14:13:18;24.20;58.70
6758;DHT22;3416;53.074;8.822;2022-09-01T14:15:45;24.30;58.50
6758;DHT22;3416;53.074;8.822;2022-09-01T14:18:14;24.40;58.20
6758;DHT22;3416;53.074;8.822;2022-09-01T14:20:44;24.50;58.20
6758;DHT22;3416;53.074;8.822;2022-09-01T14:23:12;24.50;58.10
6758;DHT22;3416;53.074;8.822;2022-09-01T14:25:44;24.40;57.90
6758;DHT22;3416;53.074;8.822;2022-09-01T14:28:11;24.40;57.60
6758;DHT22;3416;53.074;8.822;2022-09-01T14:30:40;24.30;57.90
6758;DHT22;3416;53.074;8.822;2022-09-01T14:33:08;24.30;57.50
6758;DHT22;3416;53.074;8.822;2022-09-01T14:35:37;24.30;57.60
6758;DHT22;3416;53.074;8.822;2022-09-01T14:38:05;24.30;57.30
6758;DHT22;3416;53.074;8.822;2022-09-01T14:40:33;24.40;57.10
6758;DHT22;3416;53.074;8.822;2022-09-01T14:43:04;24.40;57.20
6758;DHT22;3416;53.074;8.822;2022-09-01T14:45:31;24.40;57.00
6758;DHT22;3416;53.074;8.822;2022-09-01T14:48:00;24.40;56.10
6758;DHT22;3416;53.074;8.822;2022-09-01T14:50:28;24.50;56.50
6758;DHT22;3416;53.074;8.822;2022-09-01T14:52:57;24.70;56.40
6758;DHT22;3416;53.074;8.822;2022-09-01T14:55:26;24.80;55.70
6758;DHT22;3416;53.074;8.822;2022-09-01T14:57:54;24.90;56.50
6758;DHT22;3416;53.074;8.822;2022-09-01T15:00:24;24.90;55.80
6758;DHT22;3416;53.074;8.822;2022-09-01T15:02:52;24.80;56.40
6758;DHT22;3416;53.074;8.822;2022-09-01T15:05:19;24.70;56.90
6758;DHT22;3416;53.074;8.822;2022-09-01T15:07:47;24.50;56.30
6758;DHT22;3416;53.074;8.822;2022-09-01T15:10:17;24.30;56.30
6758;DHT22;3416;53.074;8.822;2022-09-01T15:12:45;24.00;57.00
6758;DHT22;3416;53.074;8.822;2022-09-01T15:15:15;23.90;56.80
6758;DHT22;3416;53.074;8.822;2022-09-01T15:17:44;23.80;56.40
6758;DHT22;3416;53.074;8.822;2022-09-01T15:20:11;23.90;56.40
6758;DHT22;3416;53.074;8.822;2022-09-01T15:22:55;23.80;56.80
6758;DHT22;3416;53.074;8.822;2022-09-01T15:25:22;24.00;57.60
6758;DHT22;3416;53.074;8.822;2022-09-01T15:27:49;24.10;58.00
6758;DHT22;3416;53.074;8.822;2022-09-01T15:30:16;24.20;58.10
6758;DHT22;3416;53.074;8.822;2022-09-01T15:32:47;24.20;57.70
6758;DHT22;3416;53.074;8.822;2022-09-01T15:35:16;24.30;57.70
6758;DHT22;3416;53.074;8.822;2022-09-01T15:37:45;24.30;57.20
6758;DHT22;3416;53.074;8.822;2022-09-01T15:40:12;24.30;57.20
6758;DHT22;3416;53.074;8.822;2022-09-01T15:42:39;24.20;57.20
6758;DHT22;3416;53.074;8.822;2022-09-01T15:45:09;24.20;56.40
6758;DHT22;3416;53.074;8.822;2022-09-01T15:47:36;24.00;56.90
6758;DHT22;3416;53.074;8.822;2022-09-01T15:50:07;24.00;57.20
6758;DHT22;3416;53.074;8.822;2022-09-01T15:52:46;24.10;57.40
6758;DHT22;3416;53.074;8.822;2022-09-01T15:55:14;24.10;57.30
6758;DHT22;3416;53.074;8.822;2022-09-01T15:57:41;24.10;57.20
6758;DHT22;3416;53.074;8.822;2022-09-01T16:00:10;24.00;57.20
6758;DHT22;3416;53.074;8.822;2022-09-01T16:02:37;23.80;57.30
6758;DHT22;3416;53.074;8.822;2022-09-01T16:05:06;23.80;57.30
6758;DHT22;3416;53.074;8.822;2022-09-01T16:07:33;23.80;57.50
6758;DHT22;3416;53.074;8.822;2022-09-01T16:10:01;23.80;57.50
6758;DHT22;3416;53.074;8.822;2022-09-01T16:12:27;23.80;57.60
6758;DHT22;3416;53.074;8.822;2022-09-01T16:14:55;23.80;57.60
6758;DHT22;3416;53.074;8.822;2022-09-01T16:17:27;23.70;57.50
6758;DHT22;3416;53.074;8.822;2022-09-01T16:20:01;23.60;57.70
6758;DHT22;3416;53.074;8.822;2022-09-01T16:22:33;23.50;58.00
6758;DHT22;3416;53.074;8.822;2022-09-01T16:25:14;23.50;58.40
6758;DHT22;3416;53.074;8.822;2022-09-01T16:27:43;23.40;58.60
6758;DHT22;3416;53.074;8.822;2022-09-01T16:30:13;23.30;58.40
6758;DHT22;3416;53.074;8.822;2022-09-01T16:32:43;23.40;59.00
6758;DHT22;3416;53.074;8.822;2022-09-01T16:35:11;23.30;59.40